KELM/ELM METAR and TAF weather

Enter ICAO airport designator
Station Type Date Time Source
KELM METAR 2021/07/28 20:53 UTC NOAA

KELM 282053Z 07004KT 10SM FEW050 26/12 A3005 RMK AO2 SLP169 T02560122 56004


Station Type Date Time Source
KELM Decoded METAR 2021/07/28 20:53 UTC NOAA

ELMIRA COUNTY AIRPORT, NY, United States (KELM) 42-10N 76-54W 302M
Jul 28, 2021 - 04:53 PM EDT / 2021.07.28 2053 UTC
Wind: from the ENE (070 degrees) at 5 MPH (4 KT):0
Visibility: 10 mile(s):0
Sky conditions: mostly clear
Temperature: 78.1 F (25.6 C)
Dew Point: 54.0 F (12.2 C)
Relative Humidity: 43%
Pressure (altimeter): 30.05 in. Hg (1017 hPa)
Pressure tendency: 0.01 inches (0.4 hPa) lower than three hours ago
ob: KELM 282053Z 07004KT 10SM FEW050 26/12 A3005 RMK AO2 SLP169 T02560122 56004
cycle: 21

Station Type Date Time Source
KELM TAF 2021/07/28 18:36 UTC NOAA

TAF KELM 281734Z 2818/2918 VRB05KT P6SM SCT040
FM290000 00000KT P6SM FEW250
FM290800 VRB03KT 3SM BR SCT060 SCT120
FM291300 17004KT 6SM -SHRA BR BKN040

Example: see airport list